DK-0011 weather

Public forecast

Using degrees Celsius for public forecast. Weather courtesy of forecast.io.

Closest aviation weather report (METAR) to Rigshospitalet Helipad

Closest report is Copenhagen Kastrup Airport, 5.6 nm (10.4 km) SSE. Retrieved 2020/08/13 16:20 UTC (5 minutes ago):

EKCH 131620Z AUTO 18009KT 9999 NCD 21/15 Q1017 NOSIG

Closest aviation forecast (TAF) to Rigshospitalet Helipad

Closest forecast is Copenhagen Kastrup Airport, 5.6 nm (10.4 km) SSE. Retrieved 2020/08/13 12:33 UTC (4 hours ago):

TAF EKCH 131105Z 1312/1412 10005KT CAVOK BECMG 1312/1313 18010KT BECMG 1319/1322 09006KT